createdAt,value
2023-03-10T00:01:03.777Z,95180.63
2023-03-10T00:03:07.616Z,95176.97
2023-03-10T00:05:12.511Z,95179.81
2023-03-10T00:07:16.299Z,95174.38
2023-03-10T00:09:20.122Z,95176.19
2023-03-10T00:11:24.298Z,95185.03
2023-03-10T00:13:28.200Z,95181.41
2023-03-10T00:15:32.595Z,95182.19
2023-03-10T00:17:37.924Z,95181.41
2023-03-10T00:19:41.931Z,95182.19
2023-03-10T00:21:45.957Z,95172.00
2023-03-10T00:23:49.904Z,95184.00
2023-03-10T00:25:57.456Z,95182.19
2023-03-10T00:28:01.528Z,95178.81
2023-03-10T00:30:07.247Z,95176.19
2023-03-10T00:32:11.787Z,95185.84
2023-03-10T00:34:16.979Z,95181.59
2023-03-10T00:36:22.393Z,95185.63
2023-03-10T00:38:26.212Z,95176.97
2023-03-10T00:40:30.094Z,95192.44
2023-03-10T00:42:33.988Z,95200.28
2023-03-10T00:44:38.017Z,95187.41
2023-03-10T00:46:42.040Z,95184.81
2023-03-10T00:48:46.749Z,95188.25
2023-03-10T00:50:51.964Z,95184.81
2023-03-10T00:52:55.825Z,95179.81
2023-03-10T00:54:59.715Z,95178.81
2023-03-10T00:57:03.600Z,95189.22
2023-03-10T00:59:07.840Z,95195.25
2023-03-10T01:01:14.515Z,95196.25
2023-03-10T01:03:18.455Z,95195.47
2023-03-10T01:05:22.517Z,95204.09
2023-03-10T01:07:28.010Z,95203.91
2023-03-10T01:09:31.830Z,95194.44
2023-03-10T01:11:35.696Z,95197.06
2023-03-10T01:13:41.099Z,95190.03
2023-03-10T01:15:47.525Z,95202.09
2023-03-10T01:17:51.397Z,95203.06
2023-03-10T01:19:55.204Z,95204.88
2023-03-10T01:21:59.056Z,95203.06
2023-03-10T01:24:04.752Z,95203.06
2023-03-10T01:26:09.496Z,95199.47
2023-03-10T01:28:13.570Z,95197.06
2023-03-10T01:30:17.687Z,95199.66
2023-03-10T01:32:21.936Z,95196.25
2023-03-10T01:34:25.890Z,95192.88
2023-03-10T01:36:31.709Z,95195.25
2023-03-10T01:38:35.536Z,95191.03
2023-03-10T01:40:41.026Z,95181.41
2023-03-10T01:42:45.003Z,95180.63
2023-03-10T01:45:09.536Z,95176.38
2023-03-10T01:47:13.426Z,95177.22
2023-03-10T01:49:31.942Z,95175.41
2023-03-10T01:51:36.949Z,95166.78
2023-03-10T01:53:40.818Z,95178.00
2023-03-10T01:55:49.202Z,95174.59
2023-03-10T01:57:54.697Z,95174.59
2023-03-10T01:59:58.589Z,95175.41
2023-03-10T02:02:03.771Z,95174.59
2023-03-10T02:04:10.140Z,95178.81
2023-03-10T02:06:15.382Z,95178.81
2023-03-10T02:08:19.559Z,95178.00
2023-03-10T02:10:23.372Z,95172.78
2023-03-10T02:12:30.848Z,95175.41
2023-03-10T02:14:36.558Z,95173.59
2023-03-10T02:16:41.171Z,95164.16
2023-03-10T02:18:46.103Z,95161.56
2023-03-10T02:20:54.187Z,95152.91
2023-03-10T02:22:58.004Z,95153.72
2023-03-10T02:25:08.507Z,95163.34
2023-03-10T02:27:22.805Z,95164.16
2023-03-10T02:29:29.256Z,95163.16
2023-03-10T02:31:33.237Z,95158.94
2023-03-10T02:33:37.118Z,95160.53
2023-03-10T02:35:41.078Z,95154.53
2023-03-10T02:37:50.667Z,95161.56
2023-03-10T02:39:54.628Z,95140.69
2023-03-10T02:41:58.591Z,95144.09
2023-03-10T02:44:05.922Z,95144.09
2023-03-10T02:46:09.844Z,95145.69
2023-03-10T02:48:21.504Z,95138.06
2023-03-10T02:50:26.165Z,95141.47
2023-03-10T02:52:41.019Z,95139.84
2023-03-10T02:54:44.823Z,95127.63
2023-03-10T02:56:48.641Z,95130.25
2023-03-10T02:58:52.631Z,95122.41
2023-03-10T03:00:57.960Z,95121.59
2023-03-10T03:03:01.968Z,95124.00
2023-03-10T03:05:06.875Z,95117.22
2023-03-10T03:07:11.293Z,95114.59
2023-03-10T03:09:16.536Z,95118.00
2023-03-10T03:11:22.599Z,95108.34
2023-03-10T03:13:26.762Z,95107.75
2023-03-10T03:15:31.220Z,95107.75
2023-03-10T03:17:36.914Z,95105.94
2023-03-10T03:19:40.730Z,95095.50
2023-03-10T03:21:49.718Z,95105.94
2023-03-10T03:23:54.089Z,95104.16
2023-03-10T03:25:59.140Z,95102.34
2023-03-10T03:28:03.988Z,95092.09
2023-03-10T03:30:10.152Z,95100.72
2023-03-10T03:32:15.256Z,95097.31
2023-03-10T03:34:20.935Z,95096.09
2023-03-10T03:36:27.048Z,95087.69
2023-03-10T03:38:32.599Z,95092.91
2023-03-10T03:40:37.358Z,95093.72
2023-03-10T03:42:42.716Z,95083.28
2023-03-10T03:44:46.603Z,95066.81
2023-03-10T03:46:50.750Z,95062.41
2023-03-10T03:48:54.955Z,95069.22
2023-03-10T03:51:00.213Z,95059.81
2023-03-10T03:53:09.978Z,95049.38
2023-03-10T03:55:15.994Z,95049.38
2023-03-10T03:57:20.848Z,95053.78
2023-03-10T03:59:24.683Z,95047.56
2023-03-10T04:01:29.095Z,95042.34
2023-03-10T04:03:34.861Z,95036.09
2023-03-10T04:05:38.917Z,95034.53
2023-03-10T04:07:45.097Z,95032.72
2023-03-10T04:09:49.948Z,95030.88
2023-03-10T04:11:53.825Z,95031.91
2023-03-10T04:13:59.260Z,95011.03
2023-03-10T04:16:04.027Z,95018.06
2023-03-10T04:18:11.793Z,95007.63
2023-03-10T04:20:16.027Z,95019.66
2023-03-10T04:22:23.577Z,95007.63
2023-03-10T04:24:28.899Z,95005.03
2023-03-10T04:26:33.191Z,94991.97
2023-03-10T04:28:37.336Z,94998.78
2023-03-10T04:30:43.003Z,94971.13
2023-03-10T04:32:49.144Z,94964.88
2023-03-10T04:34:54.204Z,94966.69
2023-03-10T04:36:58.095Z,94951.84
2023-03-10T04:39:01.975Z,94947.63
2023-03-10T04:41:09.686Z,94940.59
2023-03-10T04:43:17.710Z,94941.41
2023-03-10T04:45:22.177Z,94936.19
2023-03-10T04:47:26.262Z,94933.56
2023-03-10T04:49:30.292Z,94933.56
2023-03-10T04:51:34.723Z,94932.78
2023-03-10T04:53:38.685Z,94936.97
2023-03-10T04:55:42.558Z,94921.13
2023-03-10T04:57:47.740Z,94915.13
2023-03-10T04:59:51.633Z,94898.44
2023-03-10T05:01:55.842Z,94899.47
2023-03-10T05:04:00.294Z,94895.81
2023-03-10T05:06:04.793Z,94885.38
2023-03-10T05:08:08.757Z,94879.97
2023-03-10T05:10:13.614Z,94868.75
2023-03-10T05:12:18.235Z,94871.34
2023-03-10T05:14:23.444Z,94883.59
2023-03-10T05:16:27.439Z,94879.97
2023-03-10T05:18:31.392Z,94865.94
2023-03-10T05:20:35.430Z,94863.31
2023-03-10T05:22:39.740Z,94858.91
2023-03-10T05:24:45.745Z,94861.28
2023-03-10T05:26:49.669Z,94861.50
2023-03-10T05:28:53.514Z,94863.09
2023-03-10T05:31:11.150Z,94865.72
2023-03-10T05:33:15.795Z,94870.72
2023-03-10T05:35:20.157Z,94863.88
2023-03-10T05:37:24.713Z,94878.75
2023-03-10T05:39:29.153Z,94897.59
2023-03-10T05:41:36.291Z,94908.03
2023-03-10T05:43:40.811Z,94909.66
2023-03-10T05:45:46.132Z,94903.63
2023-03-10T05:47:51.452Z,94911.44
2023-03-10T05:49:56.225Z,94915.88
2023-03-10T05:52:01.548Z,94918.28
2023-03-10T05:54:06.357Z,94912.03
2023-03-10T05:56:11.793Z,94913.84
2023-03-10T05:58:15.707Z,94899.00
2023-03-10T06:00:20.942Z,94887.75
2023-03-10T06:02:34.268Z,94897.22
2023-03-10T06:04:39.482Z,94903.41
2023-03-10T06:06:43.455Z,94911.06
2023-03-10T06:08:47.387Z,94917.06
2023-03-10T06:10:51.275Z,94911.63
2023-03-10T06:12:55.444Z,94914.25
2023-03-10T06:14:59.357Z,94911.63
2023-03-10T06:17:03.197Z,94901.78
2023-03-10T06:19:07.069Z,94915.84
2023-03-10T06:21:14.745Z,94931.72
2023-03-10T06:23:18.769Z,94953.38
2023-03-10T06:25:22.580Z,94954.97
2023-03-10T06:27:26.461Z,94957.59
2023-03-10T06:29:30.259Z,94962.59
2023-03-10T06:31:34.299Z,94962.59
2023-03-10T06:33:38.762Z,94960.78
2023-03-10T06:35:42.640Z,94960.00
2023-03-10T06:37:47.788Z,94952.38
2023-03-10T06:39:51.597Z,94946.75
2023-03-10T06:41:55.821Z,94933.69
2023-03-10T06:43:59.661Z,94938.91
2023-03-10T06:46:04.905Z,94938.91
2023-03-10T06:48:08.796Z,94936.31
2023-03-10T06:50:17.866Z,94949.34
2023-03-10T06:52:21.784Z,94956.16
2023-03-10T06:54:27.065Z,94955.38
2023-03-10T06:56:30.943Z,94963.78
2023-03-10T06:58:35.826Z,94958.56
2023-03-10T07:00:40.100Z,94967.19
2023-03-10T07:02:44.019Z,94961.19
2023-03-10T07:04:47.978Z,94955.97
2023-03-10T07:06:51.976Z,94961.19
2023-03-10T07:08:55.956Z,94958.38
2023-03-10T07:11:01.157Z,94974.84
2023-03-10T07:13:04.986Z,94973.00
2023-03-10T07:15:10.086Z,94983.44
2023-03-10T07:17:13.994Z,94990.28
2023-03-10T07:19:17.838Z,94993.09
2023-03-10T07:21:21.718Z,94999.09
2023-03-10T07:23:25.564Z,95005.13
2023-03-10T07:25:29.404Z,95019.00
2023-03-10T07:27:34.600Z,95015.56
2023-03-10T07:29:38.439Z,94992.47
2023-03-10T07:31:42.375Z,95001.06
2023-03-10T07:33:46.308Z,94997.28
2023-03-10T07:35:50.210Z,95005.53
2023-03-10T07:37:54.080Z,95016.75
2023-03-10T07:39:57.949Z,95036.03
2023-03-10T07:42:01.772Z,95028.00
2023-03-10T07:44:08.335Z,95021.97
2023-03-10T07:46:14.340Z,95021.97
2023-03-10T07:48:18.301Z,95024.38
2023-03-10T07:50:22.896Z,95033.00
2023-03-10T07:52:26.824Z,95027.59
2023-03-10T07:54:30.668Z,95034.19
2023-03-10T07:56:34.450Z,95053.50
2023-03-10T07:58:38.445Z,95056.91
2023-03-10T08:00:43.644Z,95062.53
2023-03-10T08:02:47.537Z,95056.31
2023-03-10T08:04:52.420Z,95056.09
2023-03-10T08:06:56.464Z,95062.72
2023-03-10T08:09:00.309Z,95063.31
2023-03-10T08:11:05.175Z,95085.19
2023-03-10T08:13:09.095Z,95091.81
2023-03-10T08:15:14.546Z,95102.88
2023-03-10T08:17:19.782Z,95102.88
2023-03-10T08:19:23.782Z,95107.41
2023-03-10T08:21:27.687Z,95099.00
2023-03-10T08:23:31.527Z,95100.63
2023-03-10T08:25:35.534Z,95096.81
2023-03-10T08:27:39.391Z,95106.47
2023-03-10T08:29:43.249Z,95107.69
2023-03-10T08:31:47.669Z,95101.81
2023-03-10T08:33:55.843Z,95097.63
2023-03-10T08:36:07.464Z,95093.56
2023-03-10T08:38:11.428Z,95075.66
2023-03-10T08:40:16.035Z,95088.34
2023-03-10T08:42:19.868Z,95094.38
2023-03-10T08:44:24.095Z,95095.75
2023-03-10T08:46:32.681Z,95091.31
2023-03-10T08:48:36.535Z,95092.75
2023-03-10T08:50:42.120Z,95098.22
2023-03-10T08:52:45.968Z,95084.06
2023-03-10T08:54:49.810Z,95087.56
2023-03-10T08:56:53.660Z,95086.16
2023-03-10T08:58:59.110Z,95089.38
2023-03-10T09:01:02.924Z,95091.00
2023-03-10T09:03:06.873Z,95083.31
2023-03-10T09:05:11.553Z,95090.81
2023-03-10T09:07:16.766Z,95087.44
2023-03-10T09:09:20.571Z,95088.13
2023-03-10T09:11:26.765Z,95089.75
2023-03-10T09:13:30.646Z,95088.97
2023-03-10T09:15:35.201Z,95092.13
2023-03-10T09:17:40.820Z,95085.72
2023-03-10T09:19:44.942Z,95084.13
2023-03-10T09:21:49.155Z,95071.69
2023-03-10T09:23:54.453Z,95062.25
2023-03-10T09:25:58.664Z,95074.28
2023-03-10T09:28:02.487Z,95072.47
2023-03-10T09:30:07.761Z,95077.63
2023-03-10T09:32:12.136Z,95086.69
2023-03-10T09:34:16.222Z,95079.09
2023-03-10T09:36:20.126Z,95101.78
2023-03-10T09:38:24.002Z,95091.34
2023-03-10T09:40:29.229Z,95099.81
2023-03-10T09:42:38.772Z,95096.59
2023-03-10T09:44:44.350Z,95083.75
2023-03-10T09:46:51.542Z,95096.81
2023-03-10T09:48:59.776Z,95088.88
2023-03-10T09:51:05.849Z,95085.25
2023-03-10T09:53:30.441Z,95085.88
2023-03-10T09:55:42.449Z,95083.03
2023-03-10T09:57:51.610Z,95075.59
2023-03-10T09:59:58.378Z,95084.63
2023-03-10T10:02:02.232Z,95080.00
2023-03-10T10:04:09.062Z,95085.00
2023-03-10T10:06:16.645Z,95078.31
2023-03-10T10:08:24.456Z,95090.88
2023-03-10T10:10:30.623Z,95087.91
2023-03-10T10:12:36.655Z,95088.75
2023-03-10T10:14:48.148Z,95093.78
2023-03-10T10:17:05.943Z,95090.38
2023-03-10T10:19:13.771Z,95084.94
2023-03-10T10:21:21.344Z,95104.03
2023-03-10T10:23:33.020Z,95101.16
2023-03-10T10:25:38.098Z,95096.94
2023-03-10T10:27:45.259Z,95107.00
2023-03-10T10:29:49.094Z,95104.38
2023-03-10T10:32:08.006Z,95109.59
2023-03-10T10:34:21.402Z,95105.19
2023-03-10T10:36:26.322Z,95114.00
2023-03-10T10:38:30.983Z,95111.16
2023-03-10T10:40:36.216Z,95118.59
2023-03-10T10:42:40.040Z,95138.69
2023-03-10T10:44:45.814Z,95128.88
2023-03-10T10:46:53.890Z,95137.75
2023-03-10T10:49:10.124Z,95135.06
2023-03-10T10:51:22.047Z,95156.00
2023-03-10T10:53:28.722Z,95145.91
2023-03-10T10:55:34.653Z,95146.50
2023-03-10T10:57:45.937Z,95145.53
2023-03-10T10:59:51.173Z,95167.66
2023-03-10T11:01:56.509Z,95166.03
2023-03-10T11:04:05.956Z,95178.09
2023-03-10T11:06:20.805Z,95170.84
2023-03-10T11:08:37.456Z,95179.69
2023-03-10T11:10:41.333Z,95178.09
2023-03-10T11:13:00.292Z,95171.44
2023-03-10T11:15:12.234Z,95174.06
2023-03-10T11:17:19.097Z,95177.69
2023-03-10T11:19:29.381Z,95178.31
2023-03-10T11:21:34.669Z,95176.31
2023-03-10T11:23:42.410Z,95175.28
2023-03-10T11:25:49.042Z,95187.94
2023-03-10T11:28:27.366Z,95192.56
2023-03-10T11:30:34.723Z,95192.56
2023-03-10T11:32:46.761Z,95188.56
2023-03-10T11:34:53.819Z,95189.38
2023-03-10T11:37:05.553Z,95193.78
2023-03-10T11:39:14.862Z,95199.59
2023-03-10T11:41:20.955Z,95197.81
2023-03-10T11:43:33.560Z,95194.78
2023-03-10T11:45:40.208Z,95187.75
2023-03-10T11:47:51.857Z,95197.22
2023-03-10T11:50:00.386Z,95198.84
2023-03-10T11:52:07.349Z,95202.81
2023-03-10T11:54:15.627Z,95205.22
2023-03-10T11:56:21.884Z,95212.84
2023-03-10T11:58:27.220Z,95212.84
2023-03-10T12:00:34.640Z,95211.06
2023-03-10T12:02:43.510Z,95208.44
2023-03-10T12:04:50.204Z,95208.25
2023-03-10T12:06:56.208Z,95215.88
2023-03-10T12:09:01.039Z,95216.09
2023-03-10T12:11:06.123Z,95221.50
2023-03-10T12:13:23.314Z,95224.50
2023-03-10T12:15:30.329Z,95217.50
2023-03-10T12:17:43.085Z,95220.13
2023-03-10T12:20:20.130Z,95224.31
2023-03-10T12:22:25.467Z,95217.28
2023-03-10T12:24:45.466Z,95223.53
2023-03-10T12:27:04.441Z,95223.72
2023-03-10T12:29:40.805Z,95216.69
2023-03-10T12:31:48.176Z,95223.31
2023-03-10T12:33:54.787Z,95213.25
2023-03-10T12:36:00.418Z,95217.88
2023-03-10T12:38:37.258Z,95217.28
2023-03-10T12:40:50.478Z,95203.63
2023-03-10T12:42:54.287Z,95208.03
2023-03-10T12:45:21.796Z,95209.88
2023-03-10T12:47:49.557Z,95202.03
2023-03-10T12:49:57.073Z,95203.84
2023-03-10T12:52:19.132Z,95214.28
2023-03-10T12:54:45.342Z,95207.84
2023-03-10T12:56:51.849Z,95231.56
2023-03-10T12:58:59.505Z,95221.91
2023-03-10T13:01:03.810Z,95230.56
2023-03-10T13:03:18.297Z,95233.16
2023-03-10T13:05:26.227Z,95229.72
2023-03-10T13:07:30.686Z,95244.59
2023-03-10T13:09:38.366Z,95256.06
2023-03-10T13:11:44.732Z,95257.66
2023-03-10T13:13:48.938Z,95253.66
2023-03-10T13:15:58.694Z,95253.66
2023-03-10T13:18:21.550Z,95258.28
2023-03-10T13:20:26.742Z,95258.09
2023-03-10T13:22:30.560Z,95264.53
2023-03-10T13:24:35.636Z,95274.97
2023-03-10T13:26:39.426Z,95281.97
2023-03-10T13:28:52.858Z,95265.94
2023-03-10T13:31:20.906Z,95267.94
2023-03-10T13:33:27.316Z,95274.16
2023-03-10T13:35:35.835Z,95260.50
2023-03-10T13:37:39.910Z,95271.53
2023-03-10T13:39:43.725Z,95265.31
2023-03-10T13:41:49.436Z,95274.38
2023-03-10T13:43:53.932Z,95273.94
2023-03-10T13:45:58.001Z,95275.75
2023-03-10T13:48:02.784Z,95283.97
2023-03-10T13:50:10.686Z,95272.13
2023-03-10T13:52:16.203Z,95280.19
2023-03-10T13:54:22.083Z,95285.59
2023-03-10T13:56:27.130Z,95283.00
2023-03-10T13:58:30.951Z,95289.00
2023-03-10T14:00:35.885Z,95292.41
2023-03-10T14:02:40.633Z,95304.47
2023-03-10T14:04:47.234Z,95313.53
2023-03-10T14:07:08.514Z,95321.13
2023-03-10T14:09:21.014Z,95328.97
2023-03-10T14:11:36.630Z,95340.63
2023-03-10T14:13:44.839Z,95361.53
2023-03-10T14:15:54.112Z,95381.63
2023-03-10T14:18:18.184Z,95399.09
2023-03-10T14:20:29.102Z,95408.34
2023-03-10T14:22:37.930Z,95379.00
2023-03-10T14:24:43.248Z,95375.38
2023-03-10T14:26:47.173Z,95381.63
2023-03-10T14:28:50.994Z,95397.88
2023-03-10T14:30:54.957Z,95428.44
2023-03-10T14:32:59.865Z,95432.03
2023-03-10T14:35:05.508Z,95416.34
2023-03-10T14:37:09.362Z,95420.78
2023-03-10T14:39:13.389Z,95432.03
2023-03-10T14:41:18.936Z,95419.38
2023-03-10T14:43:23.957Z,95419.59
2023-03-10T14:45:29.977Z,95407.72
2023-03-10T14:47:34.064Z,95417.75
2023-03-10T14:49:38.027Z,95410.16
2023-03-10T14:51:42.106Z,95408.72
2023-03-10T14:53:46.185Z,95415.56
2023-03-10T14:55:51.320Z,95440.03
2023-03-10T14:57:59.903Z,95452.31
2023-03-10T15:00:04.638Z,95425.22
2023-03-10T15:02:15.213Z,95447.69
2023-03-10T15:04:19.378Z,95456.53
2023-03-10T15:06:23.621Z,95440.03
2023-03-10T15:08:30.352Z,95443.66
2023-03-10T15:10:36.801Z,95438.44
2023-03-10T15:12:41.029Z,95448.91
2023-03-10T15:14:52.392Z,95480.03
2023-03-10T15:16:56.213Z,95479.63
2023-03-10T15:19:00.707Z,95476.41
2023-03-10T15:21:04.737Z,95479.00
2023-03-10T15:23:08.623Z,95483.22
2023-03-10T15:25:12.552Z,95479.81
2023-03-10T15:27:16.548Z,95478.22
2023-03-10T15:29:22.402Z,95471.19
2023-03-10T15:31:27.724Z,95455.69
2023-03-10T15:33:31.592Z,95457.31
2023-03-10T15:35:35.653Z,95456.09
2023-03-10T15:37:39.737Z,95446.28
2023-03-10T15:39:43.688Z,95440.25
2023-03-10T15:41:47.570Z,95462.94
2023-03-10T15:43:51.607Z,95479.00
2023-03-10T15:45:55.457Z,95471.00
2023-03-10T15:48:00.763Z,95450.47
2023-03-10T15:50:04.946Z,95442.47
2023-03-10T15:52:08.803Z,95434.03
2023-03-10T15:54:12.995Z,95470.22
2023-03-10T15:56:16.825Z,95484.66
2023-03-10T15:58:20.772Z,95495.09
2023-03-10T16:00:25.789Z,95502.31
2023-03-10T16:02:29.647Z,95488.66
2023-03-10T16:04:34.889Z,95495.47
2023-03-10T16:06:38.709Z,95516.59
2023-03-10T16:08:42.629Z,95501.09
2023-03-10T16:10:53.018Z,95488.03
2023-03-10T16:12:56.859Z,95508.13
2023-03-10T16:15:00.687Z,95507.91
2023-03-10T16:17:04.507Z,95498.50
2023-03-10T16:19:08.347Z,95482.63
2023-03-10T16:21:15.629Z,95490.84
2023-03-10T16:23:22.040Z,95485.44
2023-03-10T16:25:25.884Z,95494.47
2023-03-10T16:27:29.724Z,95494.25
2023-03-10T16:29:33.827Z,95502.31
2023-03-10T16:31:38.701Z,95508.94
2023-03-10T16:33:42.879Z,95502.94
2023-03-10T16:35:46.715Z,95496.50
2023-03-10T16:37:52.045Z,95515.34
2023-03-10T16:39:56.425Z,95506.50
2023-03-10T16:42:00.403Z,95507.53
2023-03-10T16:44:05.869Z,95513.16
2023-03-10T16:46:11.487Z,95503.53
2023-03-10T16:48:15.559Z,95513.53
2023-03-10T16:50:19.577Z,95519.56
2023-03-10T16:52:23.395Z,95521.97
2023-03-10T16:54:28.666Z,95511.13
2023-03-10T16:56:33.003Z,95534.03
2023-03-10T16:58:36.858Z,95525.22
2023-03-10T17:00:40.842Z,95521.81
2023-03-10T17:02:44.714Z,95525.81
2023-03-10T17:04:49.058Z,95514.38
2023-03-10T17:06:52.945Z,95525.22
2023-03-10T17:08:56.923Z,95513.38
2023-03-10T17:11:02.202Z,95527.84
2023-03-10T17:13:06.030Z,95533.06
2023-03-10T17:15:11.189Z,95533.84
2023-03-10T17:17:15.010Z,95526.41
2023-03-10T17:19:20.720Z,95530.22
2023-03-10T17:21:26.490Z,95524.78
2023-03-10T17:23:30.314Z,95535.22
2023-03-10T17:25:34.179Z,95540.44
2023-03-10T17:27:40.256Z,95539.66
2023-03-10T17:29:45.013Z,95552.91
2023-03-10T17:31:50.487Z,95551.97
2023-03-10T17:33:55.378Z,95546.13
2023-03-10T17:35:59.217Z,95544.31
2023-03-10T17:38:03.083Z,95566.78
2023-03-10T17:40:10.192Z,95565.00
2023-03-10T17:42:14.028Z,95570.41
2023-03-10T17:44:19.519Z,95573.81
2023-03-10T17:46:25.105Z,95569.38
2023-03-10T17:48:29.099Z,95583.25
2023-03-10T17:50:33.543Z,95560.75
2023-03-10T17:52:37.803Z,95574.41
2023-03-10T17:54:41.643Z,95568.59
2023-03-10T17:56:45.558Z,95593.91
2023-03-10T17:58:50.322Z,95605.13
2023-03-10T18:00:55.578Z,95606.78
2023-03-10T18:02:59.962Z,95609.38
2023-03-10T18:05:04.368Z,95607.56
2023-03-10T18:07:08.192Z,95620.81
2023-03-10T18:09:14.116Z,95619.22
2023-03-10T18:11:18.721Z,95632.88
2023-03-10T18:13:22.744Z,95621.22
2023-03-10T18:15:26.776Z,95621.03
2023-03-10T18:17:31.999Z,95622.81
2023-03-10T18:19:36.137Z,95625.63
2023-03-10T18:21:40.275Z,95633.66
2023-03-10T18:23:44.130Z,95631.22
2023-03-10T18:25:48.027Z,95630.41
2023-03-10T18:27:52.191Z,95634.84
2023-03-10T18:29:56.169Z,95629.81
2023-03-10T18:32:00.103Z,95621.16
2023-03-10T18:34:05.508Z,95624.59
2023-03-10T18:36:13.764Z,95632.41
2023-03-10T18:38:18.236Z,95643.84
2023-03-10T18:40:22.533Z,95657.72
2023-03-10T18:42:26.468Z,95665.75
2023-03-10T18:44:30.315Z,95675.38
2023-03-10T18:46:34.259Z,95685.81
2023-03-10T18:48:38.125Z,95699.69
2023-03-10T18:50:43.395Z,95697.25
2023-03-10T18:52:47.251Z,95704.91
2023-03-10T18:54:51.353Z,95711.31
2023-03-10T18:56:55.226Z,95727.78
2023-03-10T18:58:59.283Z,95718.13
2023-03-10T19:01:03.421Z,95724.78
2023-03-10T19:03:08.641Z,95718.94
2023-03-10T19:05:13.846Z,95742.44
2023-03-10T19:07:20.367Z,95732.00
2023-03-10T19:09:24.435Z,95741.81
2023-03-10T19:11:28.841Z,95741.81
2023-03-10T19:13:33.039Z,95741.63
2023-03-10T19:15:38.434Z,95746.06
2023-03-10T19:17:42.325Z,95751.28
2023-03-10T19:19:46.326Z,95735.59
2023-03-10T19:21:50.235Z,95741.00
2023-03-10T19:23:55.466Z,95758.31
2023-03-10T19:25:59.549Z,95759.09
2023-03-10T19:28:03.369Z,95772.34
2023-03-10T19:30:11.405Z,95778.34
2023-03-10T19:32:15.265Z,95764.50
2023-03-10T19:34:20.495Z,95779.19
2023-03-10T19:36:26.327Z,95785.22
2023-03-10T19:38:30.433Z,95780.16
2023-03-10T19:40:35.853Z,95773.97
2023-03-10T19:42:40.762Z,95772.34
2023-03-10T19:44:44.588Z,95777.38
2023-03-10T19:46:48.876Z,95785.66
2023-03-10T19:48:52.705Z,95792.28
2023-03-10T19:50:56.779Z,95801.09
2023-03-10T19:53:00.611Z,95796.91
2023-03-10T19:55:06.902Z,95802.13
2023-03-10T19:57:13.637Z,95802.28
2023-03-10T19:59:17.460Z,95804.28
2023-03-10T20:01:24.302Z,95803.47
2023-03-10T20:03:30.203Z,95805.28
2023-03-10T20:05:34.078Z,95798.25
2023-03-10T20:07:39.290Z,95803.31
2023-03-10T20:09:43.211Z,95800.69
2023-03-10T20:11:47.184Z,95812.13
2023-03-10T20:13:53.349Z,95807.69
2023-03-10T20:15:57.705Z,95791.22
2023-03-10T20:18:01.845Z,95783.41
2023-03-10T20:20:10.271Z,95784.41
2023-03-10T20:22:18.431Z,95792.03
2023-03-10T20:24:22.663Z,95807.69
2023-03-10T20:26:26.584Z,95812.75
2023-03-10T20:28:30.429Z,95815.53
2023-03-10T20:30:35.898Z,95815.53
2023-03-10T20:32:39.838Z,95818.34
2023-03-10T20:34:43.728Z,95815.75
2023-03-10T20:36:47.639Z,95812.13
2023-03-10T20:38:51.501Z,95825.97
2023-03-10T20:40:55.543Z,95839.84
2023-03-10T20:43:00.419Z,95839.03
2023-03-10T20:45:05.700Z,95843.44
2023-03-10T20:47:10.941Z,95814.72
2023-03-10T20:49:15.066Z,95831.19
2023-03-10T20:51:19.444Z,95824.38
2023-03-10T20:53:23.733Z,95830.41
2023-03-10T20:55:28.855Z,95851.28
2023-03-10T20:57:32.923Z,95835.63
2023-03-10T20:59:37.345Z,95825.97
2023-03-10T21:01:42.453Z,95825.16
2023-03-10T21:03:47.940Z,95823.56
2023-03-10T21:05:51.868Z,95835.78
2023-03-10T21:07:56.118Z,95842.66
2023-03-10T21:09:59.980Z,95854.91
2023-03-10T21:12:03.859Z,95865.53
2023-03-10T21:14:07.758Z,95867.13
2023-03-10T21:16:12.237Z,95864.50
2023-03-10T21:18:16.155Z,95869.72
2023-03-10T21:20:23.014Z,95878.56
2023-03-10T21:22:30.343Z,95876.97
2023-03-10T21:24:34.208Z,95877.78
2023-03-10T21:26:38.101Z,95883.78
2023-03-10T21:28:42.066Z,95894.25
2023-03-10T21:30:45.945Z,95888.84
2023-03-10T21:32:49.867Z,95898.28
2023-03-10T21:35:02.571Z,95891.25
2023-03-10T21:37:25.243Z,95907.53
2023-03-10T21:39:29.135Z,95912.75
2023-03-10T21:41:33.258Z,95921.22
2023-03-10T21:43:37.166Z,95919.97
2023-03-10T21:45:41.025Z,95919.97
2023-03-10T21:47:44.934Z,95917.34
2023-03-10T21:49:48.824Z,95917.97
2023-03-10T21:51:53.148Z,95926.81
2023-03-10T21:56:55.198Z,95917.56
2023-03-10T21:59:07.341Z,95919.34
2023-03-10T22:01:18.379Z,95915.13
2023-03-10T22:03:22.845Z,95920.34
2023-03-10T22:05:33.775Z,95929.19
2023-03-10T22:07:44.946Z,95945.81
2023-03-10T22:10:02.760Z,95935.22
2023-03-10T22:12:17.554Z,95926.75
2023-03-10T22:14:35.524Z,95920.72
2023-03-10T22:16:43.254Z,95925.94
2023-03-10T22:19:07.963Z,95911.88
2023-03-10T22:21:23.737Z,95907.03
2023-03-10T22:23:40.881Z,95913.06
2023-03-10T22:25:52.559Z,95901.81
2023-03-10T22:28:03.408Z,95912.28
2023-03-10T22:30:10.973Z,95926.94
2023-03-10T22:32:20.153Z,95920.09
2023-03-10T22:34:37.123Z,95915.50
2023-03-10T22:37:39.535Z,95926.94
2023-03-10T22:39:25.098Z,95921.88
2023-03-10T22:41:45.717Z,95924.31
2023-03-10T22:43:59.022Z,95915.06
2023-03-10T22:46:18.243Z,95911.44
2023-03-10T22:48:28.568Z,95898.38
2023-03-10T22:50:52.528Z,95894.97
2023-03-10T22:53:01.330Z,95891.56
2023-03-10T22:55:09.162Z,95926.31
2023-03-10T22:57:17.544Z,95928.28
2023-03-10T22:59:34.433Z,95921.06
2023-03-10T23:01:41.596Z,95896.59
2023-03-10T23:03:49.278Z,95881.13
2023-03-10T23:06:01.694Z,95875.09
2023-03-10T23:08:16.227Z,95866.88
2023-03-10T23:10:33.117Z,95894.00
2023-03-10T23:12:40.742Z,95885.34
2023-03-10T23:14:51.554Z,95880.31
2023-03-10T23:17:04.094Z,95888.16
2023-03-10T23:19:26.257Z,95899.41
2023-03-10T23:21:41.876Z,95909.03
2023-03-10T23:23:49.808Z,95912.63
2023-03-10T23:26:02.311Z,95915.84
2023-03-10T23:28:09.710Z,95881.28
2023-03-10T23:30:23.408Z,95896.97
2023-03-10T23:32:37.667Z,95899.56
2023-03-10T23:34:56.916Z,95882.09
2023-03-10T23:37:17.596Z,95893.72
2023-03-10T23:39:26.128Z,95901.38
2023-03-10T23:42:15.283Z,95888.31
2023-03-10T23:45:04.092Z,95893.38
2023-03-10T23:49:15.441Z,95928.28
2023-03-10T23:52:21.810Z,95937.13
2023-03-10T23:55:11.275Z,95906.59
2023-03-10T23:59:02.277Z,95910.19
